In Rescue
 
Open Full Screen Window  High Contrast Mode
Wind Gusting 00 knots
05
January 17, 2021 2:30 PM EST
Weather Information
Wind Direction
  240 °
Wind Speed
  05 kt (6 mph)
Wind Gust
  00 kt (0 mph)
Altimeter
29.69 in
Visibility
1 1/4 SM
Temperature
00° C
32° F
Dewpoint
00° C
32° F
Humidity
100%
1hr Rain Fall
00.01 in.
24hr Rain Fall
00.01 in.
Sky Condition
Overcast @ 400 ft
LIFR

METAR KMRT 171930Z AUTO 24005KT 1 1/4SM OVC004 00/00 A2969 RMK AO2 P0001 T00001003

FAA Disclaimer: The data displayed is for advisory purposes only and is not to be used for flight planning or operations.